sensor_id;sensor_type;location;lat;lon;timestamp;pressure;altitude;pressure_sealevel;temperature;humidity
28000;BME280;15328;50.860;10.562;2023-04-12T00:04:56;95955.28;;;5.73;50.26
28000;BME280;15328;50.860;10.562;2023-04-12T00:09:56;95949.22;;;5.79;49.73
28000;BME280;15328;50.860;10.562;2023-04-12T00:14:57;95934.47;;;5.92;49.59
28000;BME280;15328;50.860;10.562;2023-04-12T00:19:57;95924.72;;;5.92;49.83
28000;BME280;15328;50.860;10.562;2023-04-12T00:24:57;95912.13;;;6.01;49.09
28000;BME280;15328;50.860;10.562;2023-04-12T00:29:58;95907.03;;;5.99;49.26
28000;BME280;15328;50.860;10.562;2023-04-12T00:34:58;95902.56;;;6.00;49.44
28000;BME280;15328;50.860;10.562;2023-04-12T00:39:58;95895.47;;;6.00;49.74
28000;BME280;15328;50.860;10.562;2023-04-12T00:44:59;95891.84;;;6.08;49.26
28000;BME280;15328;50.860;10.562;2023-04-12T00:50:00;95886.16;;;6.11;49.54
28000;BME280;15328;50.860;10.562;2023-04-12T00:55:03;95884.91;;;6.13;49.31
28000;BME280;15328;50.860;10.562;2023-04-12T01:00:05;95878.59;;;6.28;49.32
28000;BME280;15328;50.860;10.562;2023-04-12T01:05:07;95882.28;;;6.40;49.18
28000;BME280;15328;50.860;10.562;2023-04-12T01:10:28;95858.50;;;6.40;48.95
28000;BME280;15328;50.860;10.562;2023-04-12T01:15:33;95847.09;;;6.46;48.82
28000;BME280;15328;50.860;10.562;2023-04-12T01:20:41;95852.38;;;6.46;48.88
28000;BME280;15328;50.860;10.562;2023-04-12T01:30:49;95847.91;;;6.46;49.23
28000;BME280;15328;50.860;10.562;2023-04-12T01:35:52;95834.50;;;6.41;49.55
28000;BME280;15328;50.860;10.562;2023-04-12T01:40:54;95821.91;;;6.43;49.44
28000;BME280;15328;50.860;10.562;2023-04-12T01:45:54;95813.59;;;6.40;49.66
28000;BME280;15328;50.860;10.562;2023-04-12T01:56:09;95806.47;;;6.40;50.17
28000;BME280;15328;50.860;10.562;2023-04-12T02:01:11;95791.63;;;6.39;50.38
28000;BME280;15328;50.860;10.562;2023-04-12T02:06:12;95776.81;;;6.38;50.16
28000;BME280;15328;50.860;10.562;2023-04-12T02:11:13;95765.75;;;6.55;49.96
28000;BME280;15328;50.860;10.562;2023-04-12T02:16:15;95760.91;;;6.58;50.25
28000;BME280;15328;50.860;10.562;2023-04-12T02:21:16;95755.41;;;6.60;50.52
28000;BME280;15328;50.860;10.562;2023-04-12T02:26:16;95736.03;;;6.72;50.43
28000;BME280;15328;50.860;10.562;2023-04-12T02:31:17;95717.69;;;6.77;50.42
28000;BME280;15328;50.860;10.562;2023-04-12T02:36:17;95703.88;;;6.75;50.67
28000;BME280;15328;50.860;10.562;2023-04-12T02:41:19;95689.13;;;6.55;51.46
28000;BME280;15328;50.860;10.562;2023-04-12T02:46:22;95688.69;;;6.64;51.67
28000;BME280;15328;50.860;10.562;2023-04-12T02:51:22;95682.97;;;6.67;51.87
28000;BME280;15328;50.860;10.562;2023-04-12T02:56:23;95679.75;;;6.65;52.56
28000;BME280;15328;50.860;10.562;2023-04-12T03:01:23;95681.31;;;6.73;52.42
28000;BME280;15328;50.860;10.562;2023-04-12T03:06:24;95678.09;;;6.71;52.78
28000;BME280;15328;50.860;10.562;2023-04-12T03:11:24;95672.91;;;6.82;52.68
28000;BME280;15328;50.860;10.562;2023-04-12T03:16:25;95664.75;;;6.91;52.85
28000;BME280;15328;50.860;10.562;2023-04-12T03:21:28;95665.31;;;6.99;52.76
28000;BME280;15328;50.860;10.562;2023-04-12T03:26:30;95665.41;;;7.11;52.27
28000;BME280;15328;50.860;10.562;2023-04-12T03:31:34;95651.88;;;7.26;51.83
28000;BME280;15328;50.860;10.562;2023-04-12T03:36:34;95652.91;;;7.25;51.78
28000;BME280;15328;50.860;10.562;2023-04-12T03:41:35;95647.84;;;7.23;50.98
28000;BME280;15328;50.860;10.562;2023-04-12T03:46:35;95649.53;;;7.42;50.56
28000;BME280;15328;50.860;10.562;2023-04-12T03:51:36;95643.94;;;7.51;50.46
28000;BME280;15328;50.860;10.562;2023-04-12T03:56:41;95640.66;;;7.55;49.83
28000;BME280;15328;50.860;10.562;2023-04-12T04:01:42;95619.94;;;7.70;49.38
28000;BME280;15328;50.860;10.562;2023-04-12T04:06:42;95623.31;;;7.78;50.07
28000;BME280;15328;50.860;10.562;2023-04-12T04:11:42;95616.47;;;7.88;49.58
28000;BME280;15328;50.860;10.562;2023-04-12T04:16:43;95611.31;;;7.93;49.47
28000;BME280;15328;50.860;10.562;2023-04-12T04:21:43;95601.75;;;7.92;49.66
28000;BME280;15328;50.860;10.562;2023-04-12T04:26:44;95596.69;;;7.91;50.42
28000;BME280;15328;50.860;10.562;2023-04-12T04:31:44;95602.75;;;7.98;49.20
28000;BME280;15328;50.860;10.562;2023-04-12T04:36:45;95600.38;;;8.08;49.26
28000;BME280;15328;50.860;10.562;2023-04-12T04:41:45;95584.84;;;8.12;48.99
28000;BME280;15328;50.860;10.562;2023-04-12T04:46:53;95573.22;;;8.13;49.68
28000;BME280;15328;50.860;10.562;2023-04-12T04:51:53;95569.31;;;8.15;48.88
28000;BME280;15328;50.860;10.562;2023-04-12T04:56:54;95573.78;;;8.15;49.32
28000;BME280;15328;50.860;10.562;2023-04-12T05:01:55;95571.59;;;8.12;49.52
28000;BME280;15328;50.860;10.562;2023-04-12T05:06:55;95552.19;;;7.99;51.04
28000;BME280;15328;50.860;10.562;2023-04-12T05:11:56;95534.59;;;8.05;50.26
28000;BME280;15328;50.860;10.562;2023-04-12T05:16:56;95526.38;;;7.95;51.10
28000;BME280;15328;50.860;10.562;2023-04-12T05:21:57;95534.97;;;7.90;51.47
28000;BME280;15328;50.860;10.562;2023-04-12T05:26:57;95514.91;;;8.01;51.52
28000;BME280;15328;50.860;10.562;2023-04-12T05:31:58;95507.75;;;8.01;51.76
28000;BME280;15328;50.860;10.562;2023-04-12T05:36:58;95503.78;;;7.92;52.20
28000;BME280;15328;50.860;10.562;2023-04-12T05:41:59;95488.41;;;8.01;52.52
28000;BME280;15328;50.860;10.562;2023-04-12T05:46:59;95489.03;;;8.15;51.83
28000;BME280;15328;50.860;10.562;2023-04-12T05:52:00;95476.69;;;8.09;52.80
28000;BME280;15328;50.860;10.562;2023-04-12T05:57:01;95476.50;;;8.22;52.95
28000;BME280;15328;50.860;10.562;2023-04-12T06:02:02;95465.91;;;8.22;53.03
28000;BME280;15328;50.860;10.562;2023-04-12T06:07:02;95472.97;;;8.28;52.94
28000;BME280;15328;50.860;10.562;2023-04-12T06:12:04;95457.47;;;8.13;53.63
28000;BME280;15328;50.860;10.562;2023-04-12T06:17:08;95433.28;;;8.10;54.41
28000;BME280;15328;50.860;10.562;2023-04-12T06:22:08;95431.41;;;7.98;54.82
28000;BME280;15328;50.860;10.562;2023-04-12T06:27:11;95423.47;;;8.10;55.35
28000;BME280;15328;50.860;10.562;2023-04-12T06:32:12;95413.00;;;8.15;55.17
28000;BME280;15328;50.860;10.562;2023-04-12T06:37:12;95399.41;;;8.12;55.35
28000;BME280;15328;50.860;10.562;2023-04-12T06:42:13;95382.47;;;8.01;56.22
28000;BME280;15328;50.860;10.562;2023-04-12T06:47:14;95366.22;;;7.97;56.51
28000;BME280;15328;50.860;10.562;2023-04-12T06:52:15;95362.22;;;8.06;56.11
28000;BME280;15328;50.860;10.562;2023-04-12T06:57:15;95349.19;;;8.17;56.57
28000;BME280;15328;50.860;10.562;2023-04-12T07:02:18;95346.69;;;8.22;56.44
28000;BME280;15328;50.860;10.562;2023-04-12T07:07:18;95346.66;;;7.98;57.35
28000;BME280;15328;50.860;10.562;2023-04-12T07:12:20;95338.94;;;8.09;57.18
28000;BME280;15328;50.860;10.562;2023-04-12T07:17:24;95341.25;;;8.17;56.81
28000;BME280;15328;50.860;10.562;2023-04-12T07:22:26;95343.31;;;8.15;56.86
28000;BME280;15328;50.860;10.562;2023-04-12T07:27:26;95331.91;;;8.02;57.36
28000;BME280;15328;50.860;10.562;2023-04-12T07:32:26;95329.84;;;8.16;57.30
28000;BME280;15328;50.860;10.562;2023-04-12T07:37:30;95306.97;;;8.22;57.47
28000;BME280;15328;50.860;10.562;2023-04-12T07:42:30;95295.00;;;8.54;56.05
28000;BME280;15328;50.860;10.562;2023-04-12T07:47:30;95284.03;;;8.62;55.94
28000;BME280;15328;50.860;10.562;2023-04-12T07:52:32;95291.28;;;8.67;56.01
28000;BME280;15328;50.860;10.562;2023-04-12T07:57:32;95281.91;;;8.76;55.20
28000;BME280;15328;50.860;10.562;2023-04-12T08:02:32;95270.63;;;8.69;55.34
28000;BME280;15328;50.860;10.562;2023-04-12T08:07:32;95277.88;;;8.74;55.72
28000;BME280;15328;50.860;10.562;2023-04-12T08:12:33;95274.44;;;8.73;55.82
28000;BME280;15328;50.860;10.562;2023-04-12T08:17:33;95266.41;;;8.56;55.82
28000;BME280;15328;50.860;10.562;2023-04-12T08:22:34;95263.59;;;8.75;55.26
28000;BME280;15328;50.860;10.562;2023-04-12T08:27:35;95249.19;;;8.82;55.42
28000;BME280;15328;50.860;10.562;2023-04-12T08:32:35;95251.84;;;8.71;55.41
28000;BME280;15328;50.860;10.562;2023-04-12T08:37:36;95252.41;;;8.73;55.15
28000;BME280;15328;50.860;10.562;2023-04-12T08:42:37;95235.38;;;8.68;55.18
28000;BME280;15328;50.860;10.562;2023-04-12T08:47:39;95226.94;;;8.72;54.93
28000;BME280;15328;50.860;10.562;2023-04-12T08:52:41;95223.44;;;8.54;56.34
28000;BME280;15328;50.860;10.562;2023-04-12T08:57:42;95224.56;;;8.58;57.44
28000;BME280;15328;50.860;10.562;2023-04-12T09:02:42;95202.13;;;8.49;58.45
28000;BME280;15328;50.860;10.562;2023-04-12T09:07:46;95182.53;;;8.50;58.75
28000;BME280;15328;50.860;10.562;2023-04-12T09:12:46;95193.34;;;8.49;59.21
28000;BME280;15328;50.860;10.562;2023-04-12T09:17:47;95177.56;;;8.42;60.17
28000;BME280;15328;50.860;10.562;2023-04-12T09:22:48;95153.59;;;8.49;60.49
28000;BME280;15328;50.860;10.562;2023-04-12T09:27:51;95158.19;;;8.53;60.79
28000;BME280;15328;50.860;10.562;2023-04-12T09:32:53;95150.50;;;8.40;61.54
28000;BME280;15328;50.860;10.562;2023-04-12T09:38:06;95134.13;;;8.43;61.99
28000;BME280;15328;50.860;10.562;2023-04-12T09:43:07;95133.47;;;8.36;62.15
28000;BME280;15328;50.860;10.562;2023-04-12T09:48:17;95131.69;;;8.53;62.36
28000;BME280;15328;50.860;10.562;2023-04-12T09:53:18;95119.44;;;8.64;63.33
28000;BME280;15328;50.860;10.562;2023-04-12T09:58:19;95103.53;;;8.64;62.84
28000;BME280;15328;50.860;10.562;2023-04-12T10:03:20;95105.31;;;8.75;61.97
28000;BME280;15328;50.860;10.562;2023-04-12T10:08:24;95086.97;;;8.74;62.91
28000;BME280;15328;50.860;10.562;2023-04-12T10:13:25;95080.88;;;8.73;63.01
28000;BME280;15328;50.860;10.562;2023-04-12T10:18:26;95068.06;;;8.82;62.87
28000;BME280;15328;50.860;10.562;2023-04-12T10:23:26;95061.38;;;8.96;62.85
28000;BME280;15328;50.860;10.562;2023-04-12T10:28:27;95048.94;;;8.96;61.37
28000;BME280;15328;50.860;10.562;2023-04-12T10:33:29;95042.34;;;8.82;62.43
28000;BME280;15328;50.860;10.562;2023-04-12T10:38:44;95029.47;;;8.74;62.76
28000;BME280;15328;50.860;10.562;2023-04-12T10:43:46;95022.19;;;8.81;63.29
28000;BME280;15328;50.860;10.562;2023-04-12T10:48:51;95024.16;;;8.74;63.61
28000;BME280;15328;50.860;10.562;2023-04-12T10:53:53;95009.47;;;8.83;64.04
28000;BME280;15328;50.860;10.562;2023-04-12T10:59:13;95012.59;;;8.97;64.25
28000;BME280;15328;50.860;10.562;2023-04-12T11:04:19;95002.16;;;9.07;65.85
28000;BME280;15328;50.860;10.562;2023-04-12T11:14:47;95000.88;;;9.48;64.03
28000;BME280;15328;50.860;10.562;2023-04-12T11:19:53;95000.00;;;9.43;64.64
28000;BME280;15328;50.860;10.562;2023-04-12T11:24:56;94981.78;;;9.51;64.25
28000;BME280;15328;50.860;10.562;2023-04-12T11:29:58;94998.59;;;9.35;64.41
28000;BME280;15328;50.860;10.562;2023-04-12T11:35:05;94987.66;;;9.32;65.44
28000;BME280;15328;50.860;10.562;2023-04-12T11:40:14;94962.72;;;9.33;65.80
28000;BME280;15328;50.860;10.562;2023-04-12T11:45:18;94975.09;;;9.27;66.37
28000;BME280;15328;50.860;10.562;2023-04-12T11:50:29;94960.72;;;9.23;66.73
28000;BME280;15328;50.860;10.562;2023-04-12T11:55:35;94971.81;;;9.20;67.23
28000;BME280;15328;50.860;10.562;2023-04-12T12:00:36;94965.22;;;9.22;67.18
28000;BME280;15328;50.860;10.562;2023-04-12T12:05:38;94951.72;;;9.24;67.57
28000;BME280;15328;50.860;10.562;2023-04-12T12:10:40;94940.47;;;9.17;68.03
28000;BME280;15328;50.860;10.562;2023-04-12T12:15:44;94939.16;;;9.36;68.02
28000;BME280;15328;50.860;10.562;2023-04-12T12:20:49;94931.50;;;9.40;68.63
28000;BME280;15328;50.860;10.562;2023-04-12T12:25:50;94933.09;;;9.41;68.30
28000;BME280;15328;50.860;10.562;2023-04-12T12:30:54;94942.44;;;9.65;68.95
28000;BME280;15328;50.860;10.562;2023-04-12T12:35:56;94925.91;;;9.85;68.14
28000;BME280;15328;50.860;10.562;2023-04-12T12:40:57;94913.56;;;9.74;68.40
28000;BME280;15328;50.860;10.562;2023-04-12T12:45:58;94900.84;;;10.25;68.82
28000;BME280;15328;50.860;10.562;2023-04-12T12:50:58;94896.56;;;10.56;66.41
28000;BME280;15328;50.860;10.562;2023-04-12T12:55:59;94886.78;;;10.61;66.80
28000;BME280;15328;50.860;10.562;2023-04-12T13:01:00;94891.88;;;10.68;66.42
28000;BME280;15328;50.860;10.562;2023-04-12T13:06:00;94875.63;;;11.06;66.78
28000;BME280;15328;50.860;10.562;2023-04-12T13:11:01;94876.50;;;11.22;65.99
28000;BME280;15328;50.860;10.562;2023-04-12T13:16:05;94876.22;;;11.19;63.43
28000;BME280;15328;50.860;10.562;2023-04-12T13:21:09;94874.16;;;11.31;63.56
28000;BME280;15328;50.860;10.562;2023-04-12T13:26:12;94883.75;;;11.37;64.68
28000;BME280;15328;50.860;10.562;2023-04-12T13:31:12;94876.75;;;11.21;63.96
28000;BME280;15328;50.860;10.562;2023-04-12T13:36:15;94865.78;;;11.07;65.01
28000;BME280;15328;50.860;10.562;2023-04-12T13:41:22;94870.34;;;11.17;65.86
28000;BME280;15328;50.860;10.562;2023-04-12T13:46:25;94857.13;;;11.32;66.24
28000;BME280;15328;50.860;10.562;2023-04-12T13:51:31;94847.81;;;11.34;66.07
28000;BME280;15328;50.860;10.562;2023-04-12T13:56:32;94861.66;;;11.31;65.71
28000;BME280;15328;50.860;10.562;2023-04-12T14:01:35;94843.72;;;11.11;65.89
28000;BME280;15328;50.860;10.562;2023-04-12T14:06:36;94837.38;;;11.23;66.08
28000;BME280;15328;50.860;10.562;2023-04-12T14:11:47;94838.47;;;11.27;66.26
28000;BME280;15328;50.860;10.562;2023-04-12T14:16:49;94820.84;;;11.10;66.49
28000;BME280;15328;50.860;10.562;2023-04-12T14:21:50;94815.75;;;10.99;66.70
28000;BME280;15328;50.860;10.562;2023-04-12T14:27:00;94795.09;;;11.26;67.43
28000;BME280;15328;50.860;10.562;2023-04-12T14:32:01;94791.09;;;11.29;67.30
28000;BME280;15328;50.860;10.562;2023-04-12T14:37:01;94787.56;;;11.13;67.20
28000;BME280;15328;50.860;10.562;2023-04-12T14:42:02;94777.19;;;11.06;67.39
28000;BME280;15328;50.860;10.562;2023-04-12T14:47:05;94804.06;;;11.05;68.09
28000;BME280;15328;50.860;10.562;2023-04-12T14:52:09;94785.66;;;10.98;68.24
28000;BME280;15328;50.860;10.562;2023-04-12T14:57:12;94786.75;;;11.07;67.86
28000;BME280;15328;50.860;10.562;2023-04-12T15:02:19;94784.81;;;10.93;68.78
28000;BME280;15328;50.860;10.562;2023-04-12T15:07:20;94784.34;;;10.96;68.59
28000;BME280;15328;50.860;10.562;2023-04-12T15:12:20;94781.16;;;10.99;68.41
28000;BME280;15328;50.860;10.562;2023-04-12T15:17:21;94781.66;;;10.96;68.74
28000;BME280;15328;50.860;10.562;2023-04-12T15:22:34;94766.50;;;10.96;68.70
28000;BME280;15328;50.860;10.562;2023-04-12T15:27:40;94745.16;;;10.86;70.24
28000;BME280;15328;50.860;10.562;2023-04-12T15:32:46;94751.53;;;10.85;70.14
28000;BME280;15328;50.860;10.562;2023-04-12T15:37:49;94749.97;;;10.89;71.50
28000;BME280;15328;50.860;10.562;2023-04-12T15:42:53;94749.44;;;10.87;71.50
28000;BME280;15328;50.860;10.562;2023-04-12T15:47:59;94736.66;;;10.89;71.46
28000;BME280;15328;50.860;10.562;2023-04-12T15:53:00;94737.25;;;10.96;71.14
28000;BME280;15328;50.860;10.562;2023-04-12T15:58:04;94743.38;;;11.02;70.45
28000;BME280;15328;50.860;10.562;2023-04-12T16:03:05;94748.97;;;11.00;71.62
28000;BME280;15328;50.860;10.562;2023-04-12T16:08:06;94755.34;;;11.04;70.41
28000;BME280;15328;50.860;10.562;2023-04-12T16:13:07;94752.69;;;10.99;71.16
28000;BME280;15328;50.860;10.562;2023-04-12T16:18:09;94752.16;;;11.07;70.77
28000;BME280;15328;50.860;10.562;2023-04-12T16:23:10;94755.91;;;11.17;71.31
28000;BME280;15328;50.860;10.562;2023-04-12T16:28:10;94740.22;;;11.20;71.03
28000;BME280;15328;50.860;10.562;2023-04-12T16:33:14;94755.19;;;11.31;70.34
28000;BME280;15328;50.860;10.562;2023-04-12T16:38:15;94751.38;;;11.12;70.81
28000;BME280;15328;50.860;10.562;2023-04-12T16:43:16;94761.22;;;11.11;70.70
28000;BME280;15328;50.860;10.562;2023-04-12T16:48:16;94754.63;;;11.24;70.09
28000;BME280;15328;50.860;10.562;2023-04-12T16:53:17;94766.63;;;11.32;69.75
28000;BME280;15328;50.860;10.562;2023-04-12T16:58:17;94779.97;;;11.47;69.15
28000;BME280;15328;50.860;10.562;2023-04-12T17:03:18;94789.25;;;11.29;69.58
28000;BME280;15328;50.860;10.562;2023-04-12T17:08:20;94774.31;;;11.23;69.79
28000;BME280;15328;50.860;10.562;2023-04-12T17:13:21;94779.09;;;11.21;69.45
28000;BME280;15328;50.860;10.562;2023-04-12T17:18:22;94787.06;;;11.16;69.60
28000;BME280;15328;50.860;10.562;2023-04-12T17:23:22;94788.91;;;11.10;70.25
28000;BME280;15328;50.860;10.562;2023-04-12T17:28:23;94792.69;;;11.25;68.80
28000;BME280;15328;50.860;10.562;2023-04-12T17:33:23;94794.28;;;11.26;68.47
28000;BME280;15328;50.860;10.562;2023-04-12T17:38:24;94795.53;;;11.08;68.42
28000;BME280;15328;50.860;10.562;2023-04-12T17:43:25;94800.63;;;11.14;67.83
28000;BME280;15328;50.860;10.562;2023-04-12T17:48:25;94808.47;;;10.84;69.49
28000;BME280;15328;50.860;10.562;2023-04-12T17:53:25;94802.69;;;10.97;68.31
28000;BME280;15328;50.860;10.562;2023-04-12T17:58:26;94810.97;;;11.06;67.95
28000;BME280;15328;50.860;10.562;2023-04-12T18:03:26;94824.03;;;11.12;67.73
28000;BME280;15328;50.860;10.562;2023-04-12T18:08:27;94822.41;;;11.06;67.45
28000;BME280;15328;50.860;10.562;2023-04-12T18:13:27;94837.03;;;11.04;66.36
28000;BME280;15328;50.860;10.562;2023-04-12T18:18:28;94837.22;;;10.92;65.87
28000;BME280;15328;50.860;10.562;2023-04-12T18:23:28;94833.47;;;10.83;65.85
28000;BME280;15328;50.860;10.562;2023-04-12T18:28:29;94813.72;;;10.69;65.14
28000;BME280;15328;50.860;10.562;2023-04-12T18:33:30;94808.00;;;10.50;65.34
28000;BME280;15328;50.860;10.562;2023-04-12T18:38:31;94810.13;;;10.16;65.56
28000;BME280;15328;50.860;10.562;2023-04-12T18:43:32;94817.56;;;10.14;66.01
28000;BME280;15328;50.860;10.562;2023-04-12T18:48:33;94834.13;;;10.21;65.46
28000;BME280;15328;50.860;10.562;2023-04-12T18:53:34;94849.34;;;10.04;65.51
28000;BME280;15328;50.860;10.562;2023-04-12T18:58:35;94864.22;;;10.05;65.41
28000;BME280;15328;50.860;10.562;2023-04-12T19:03:35;94866.91;;;10.10;65.24
28000;BME280;15328;50.860;10.562;2023-04-12T19:08:36;94887.44;;;9.87;66.01
28000;BME280;15328;50.860;10.562;2023-04-12T19:13:36;94889.69;;;10.01;65.81
28000;BME280;15328;50.860;10.562;2023-04-12T19:18:37;94905.91;;;9.77;66.97
28000;BME280;15328;50.860;10.562;2023-04-12T19:23:37;94920.94;;;9.67;67.73
28000;BME280;15328;50.860;10.562;2023-04-12T19:28:38;94944.34;;;9.48;68.37
28000;BME280;15328;50.860;10.562;2023-04-12T19:33:39;94948.66;;;9.32;69.00
28000;BME280;15328;50.860;10.562;2023-04-12T19:38:40;94948.34;;;9.50;67.67
28000;BME280;15328;50.860;10.562;2023-04-12T19:43:43;94949.44;;;9.76;66.87
28000;BME280;15328;50.860;10.562;2023-04-12T19:48:43;94944.09;;;9.71;66.98
28000;BME280;15328;50.860;10.562;2023-04-12T19:53:44;94942.78;;;9.74;67.03
28000;BME280;15328;50.860;10.562;2023-04-12T19:58:48;94951.75;;;9.68;67.59
28000;BME280;15328;50.860;10.562;2023-04-12T20:03:49;94947.34;;;9.78;67.31
28000;BME280;15328;50.860;10.562;2023-04-12T20:08:49;94958.91;;;9.89;67.32
28000;BME280;15328;50.860;10.562;2023-04-12T20:13:49;94971.44;;;9.94;66.97
28000;BME280;15328;50.860;10.562;2023-04-12T20:18:50;94982.63;;;9.96;67.20
28000;BME280;15328;50.860;10.562;2023-04-12T20:23:57;95008.94;;;9.97;65.93
28000;BME280;15328;50.860;10.562;2023-04-12T20:28:59;95012.69;;;9.79;65.61
28000;BME280;15328;50.860;10.562;2023-04-12T20:33:59;95025.72;;;9.59;65.45
28000;BME280;15328;50.860;10.562;2023-04-12T20:39:00;94999.38;;;9.36;64.82
28000;BME280;15328;50.860;10.562;2023-04-12T20:44:00;95003.16;;;9.40;64.53
28000;BME280;15328;50.860;10.562;2023-04-12T20:49:00;95020.13;;;9.39;64.70
28000;BME280;15328;50.860;10.562;2023-04-12T20:54:02;95019.19;;;9.11;66.26
28000;BME280;15328;50.860;10.562;2023-04-12T20:59:02;95002.16;;;9.07;66.73
28000;BME280;15328;50.860;10.562;2023-04-12T21:04:03;95025.00;;;9.08;66.57
28000;BME280;15328;50.860;10.562;2023-04-12T21:09:05;95050.22;;;8.94;66.89
28000;BME280;15328;50.860;10.562;2023-04-12T21:14:06;95038.41;;;8.85;67.19
28000;BME280;15328;50.860;10.562;2023-04-12T21:19:08;95033.03;;;8.80;67.43
28000;BME280;15328;50.860;10.562;2023-04-12T21:24:08;95017.97;;;8.68;67.29
28000;BME280;15328;50.860;10.562;2023-04-12T21:29:08;95008.09;;;8.64;67.25
28000;BME280;15328;50.860;10.562;2023-04-12T21:34:09;95013.47;;;8.52;67.22
28000;BME280;15328;50.860;10.562;2023-04-12T21:39:10;95011.59;;;8.36;67.11
28000;BME280;15328;50.860;10.562;2023-04-12T21:44:11;95011.09;;;8.39;67.20
28000;BME280;15328;50.860;10.562;2023-04-12T21:49:11;95021.63;;;8.34;67.40
28000;BME280;15328;50.860;10.562;2023-04-12T21:54:13;95014.94;;;8.20;67.82
28000;BME280;15328;50.860;10.562;2023-04-12T21:59:13;95023.84;;;8.14;67.67
28000;BME280;15328;50.860;10.562;2023-04-12T22:04:14;95020.59;;;7.95;67.66
28000;BME280;15328;50.860;10.562;2023-04-12T22:09:14;95017.63;;;7.80;68.13
28000;BME280;15328;50.860;10.562;2023-04-12T22:14:15;95025.13;;;7.71;68.14
28000;BME280;15328;50.860;10.562;2023-04-12T22:19:15;95049.19;;;7.58;67.80
28000;BME280;15328;50.860;10.562;2023-04-12T22:24:16;95051.97;;;7.51;67.88
28000;BME280;15328;50.860;10.562;2023-04-12T22:29:16;95047.59;;;7.33;67.48
28000;BME280;15328;50.860;10.562;2023-04-12T22:34:16;95049.22;;;7.46;67.43
28000;BME280;15328;50.860;10.562;2023-04-12T22:39:18;95051.75;;;7.41;67.60
28000;BME280;15328;50.860;10.562;2023-04-12T22:44:19;95051.63;;;7.48;67.65
28000;BME280;15328;50.860;10.562;2023-04-12T22:49:24;95057.47;;;7.61;66.52
28000;BME280;15328;50.860;10.562;2023-04-12T22:54:27;95050.50;;;7.43;67.41
28000;BME280;15328;50.860;10.562;2023-04-12T22:59:27;95043.81;;;7.06;69.06
28000;BME280;15328;50.860;10.562;2023-04-12T23:04:28;95040.81;;;7.26;68.14
28000;BME280;15328;50.860;10.562;2023-04-12T23:09:28;95045.88;;;7.27;67.83
28000;BME280;15328;50.860;10.562;2023-04-12T23:14:28;95045.44;;;7.19;68.20
28000;BME280;15328;50.860;10.562;2023-04-12T23:19:29;95069.00;;;7.20;68.04
28000;BME280;15328;50.860;10.562;2023-04-12T23:24:30;95070.00;;;6.96;68.56
28000;BME280;15328;50.860;10.562;2023-04-12T23:29:30;95059.69;;;7.18;67.49
28000;BME280;15328;50.860;10.562;2023-04-12T23:34:32;95067.03;;;7.04;67.29
28000;BME280;15328;50.860;10.562;2023-04-12T23:39:33;95074.84;;;6.99;67.71
28000;BME280;15328;50.860;10.562;2023-04-12T23:44:34;95068.63;;;6.93;68.18
28000;BME280;15328;50.860;10.562;2023-04-12T23:49:35;95051.16;;;7.04;67.57
28000;BME280;15328;50.860;10.562;2023-04-12T23:54:35;95052.31;;;7.08;66.87
28000;BME280;15328;50.860;10.562;2023-04-12T23:59:35;95046.34;;;7.12;66.84
